Griffiss International Airport
KRME : now visible

Airfield :











YOU CAN JOIN US ON...

 
LOGIN :

Register | Disclaimer

   EN    FR    IT 

 









Legend :    VFR   Marginal VFR   IFR   Intensive IFR   Very Intensive IFR
Visi :
Ceiling :
>= 8 km
>= 3000ft
5 to 8 km
1000 to 3000 ft
1500m to 5 km
500 to 1000 ft
800 to 1500m
200 to 500 ft
< 800m
< 200 ft
Symbols :   Thunderstorms  Fog  Heavy snow  Heavy precipitations  Wind > 20 kt






- Airport Elevation : 504 ft


KRME - Griffiss International

CURRENT METAR :
  • 120610Z AUTO 27008KT 5SM -SN BR FEW015 BKN031 OVC060 M06/M07 A3051 RMK AO2 P0000 T10611072

EXPIRED METARs :
  • 120553Z AUTO 27007KT 5SM -SN BR SCT015 BKN026 OVC060 M06/M07 A3051 RMK AO2 SLP337 P0000 60000 T10611072 11028 21061 50014
  • 120539Z AUTO 27009KT 2SM -SN BR BKN015 OVC020 M06/M07 A3051 RMK AO2 P0000 T10611067
  • 120453Z AUTO 26008KT 1SM -SN BR VV011 M06/M06 A3049 RMK AO2 SLP331 P0000 T10611061 400061078
  • 120433Z AUTO 26011KT 1/2SM SN FZFG VV014 M06/M06 A3049 RMK AO2 P0000 T10561056
  • 120417Z AUTO 26012KT 1 1/2SM -SN BR FEW013 BKN029 OVC060 M06/M06 A3048 RMK AO2 P0000 T10561061
  • 120413Z AUTO 27010KT 2SM -SN BR FEW013 BKN031 OVC060 M06/M06 A3048 RMK AO2 P0000 T10561061
  • 120353Z AUTO 26011KT 4SM -SN BR FEW011 BKN030 OVC060 M06/M06 A3047 RMK AO2 SLP323 P0000 T10561061

TAF KRME
Valid from the 12 at 06:00 until the 13 at 06:00 UTC


120555Z 1206/1306 26010KT 3SM -SHSN SCT010 OVC020
TEMPO 1206/1210 3/4SM -SHSN OVC012
FM121300 25005KT 6SM -SHSN BKN020
FM121500 22005KT P6SM BKN035 BKN070
FM122300 18008KT P6SM BKN090



MET'MAP, your aeronautical weather chart ! - Copyright ORBIFLY December 2007 - Disclaimer

ORBIFLY MET'MAP TEAM :

Programming & Development : Alexandra Zaïnal
Concept & original design : Baudouin d'Aumeries
Assistance for programming : Marc-Olivier Méhu
Technical & hardware support : Manuel Goepfert

Contact : metmap@orbifly.com




SOURCES & CREDITS :

   NOAA       Earth
Advisory